Terminal Aerodrome Forecast
Issued by NWS Twin Cities, MN

Home | Current Version | Previous Version | Text Only | Print | Product List | Glossary Off
Versions: 1 2 3 4 5 6 7 8 9 10 11 12 13 14 15

000
FTUS43 KMPX 201500 AAA
TAFEAU
TAF AMD
KEAU 201508Z 2015/2112 29009G15KT P6SM FEW025
     FM210000 25004KT P6SM SKC
     FM210900 19004KT P6SM SKC=

USA.gov is the U.S. government's official web portal to all federal, state and local government web resources and services.